Coldwater, Ohio
Current Conditions -  °F | °C
As of 9:13 AM on Monday 24 Nov 2014 (Local Time) from KAXV Reporting Station
Moderate Rain Moderate Rain  
Wind Chill: 52°   Ceiling: 5500
Heat Index: 52°   Visibility: 10mi
Dew Point: 52°   Wind: 18mph
Humidity: 100%   Direction: 200°SSW
Pressure: 29.23"   Gusts: 26mph
Location:  40.48°N, 84.63°W
Report Text: KAXV 241413Z AUTO 20016G23KT 10SM RA SCT041 BKN055 OVC090 11/11 A2923 RMK AO2 LTG DSNT NE
Loading
Personal Weather Stations






























Interactive Weather Map New forecast layout! Learn more

10-Day Weather Forecast

Advertisements
Track Severe Weather on mobile